Terminal Aerodrome Forecast
Issued by NWS Quad Cities IA IL

Home | Current Version | Previous Version | Graphics & Text | Print | Product List | Glossary On
Versions: 1 2 3 4 5 6 7 8 9 10 11 12 13 14 15 16 17 18 19 20 21 22 23 24 25
561
FTUS43 KDVN 252136 AAC
TAFDBQ
TAF AMD
KDBQ 252136Z 2522/2618 16012G20KT P6SM SCT030
     FM260000 16011KT P6SM SCT250
     FM260900 18007KT 5SM BR BKN250
     FM261500 19009KT P6SM BKN120=

USA.gov is the U.S. government's official web portal to all federal, state and local government web resources and services.